sensor_id;sensor_type;location;lat;lon;timestamp;P1;durP1;ratioP1;P2;durP2;ratioP2
7645;SDS011;3864;48.180;14.178;2024-01-15T00:02:22;37.75;;;14.02;;
7645;SDS011;3864;48.180;14.178;2024-01-15T00:04:49;38.97;;;13.55;;
7645;SDS011;3864;48.180;14.178;2024-01-15T00:07:16;35.15;;;14.43;;
7645;SDS011;3864;48.180;14.178;2024-01-15T00:09:43;33.97;;;13.88;;
7645;SDS011;3864;48.180;14.178;2024-01-15T00:12:10;28.95;;;12.82;;
7645;SDS011;3864;48.180;14.178;2024-01-15T00:14:37;36.80;;;14.40;;
7645;SDS011;3864;48.180;14.178;2024-01-15T00:17:04;36.88;;;14.45;;
7645;SDS011;3864;48.180;14.178;2024-01-15T00:19:33;36.70;;;14.10;;
7645;SDS011;3864;48.180;14.178;2024-01-15T00:22:00;37.25;;;14.43;;
7645;SDS011;3864;48.180;14.178;2024-01-15T00:24:27;35.05;;;14.85;;
7645;SDS011;3864;48.180;14.178;2024-01-15T00:26:54;38.50;;;13.82;;
7645;SDS011;3864;48.180;14.178;2024-01-15T00:29:21;34.85;;;14.30;;
7645;SDS011;3864;48.180;14.178;2024-01-15T00:31:48;40.35;;;15.50;;
7645;SDS011;3864;48.180;14.178;2024-01-15T00:34:15;40.30;;;13.63;;
7645;SDS011;3864;48.180;14.178;2024-01-15T00:36:43;39.40;;;14.55;;
7645;SDS011;3864;48.180;14.178;2024-01-15T00:39:10;33.80;;;14.23;;
7645;SDS011;3864;48.180;14.178;2024-01-15T00:41:37;41.75;;;14.45;;
7645;SDS011;3864;48.180;14.178;2024-01-15T00:44:04;38.97;;;12.63;;
7645;SDS011;3864;48.180;14.178;2024-01-15T00:46:32;35.70;;;12.80;;
7645;SDS011;3864;48.180;14.178;2024-01-15T00:49:07;35.25;;;14.27;;
7645;SDS011;3864;48.180;14.178;2024-01-15T00:54:04;32.67;;;12.13;;
7645;SDS011;3864;48.180;14.178;2024-01-15T00:56:31;44.08;;;14.93;;
7645;SDS011;3864;48.180;14.178;2024-01-15T00:58:58;36.17;;;14.63;;
7645;SDS011;3864;48.180;14.178;2024-01-15T01:01:26;40.55;;;15.65;;
7645;SDS011;3864;48.180;14.178;2024-01-15T01:03:53;34.13;;;14.02;;
7645;SDS011;3864;48.180;14.178;2024-01-15T01:06:19;35.75;;;14.30;;
7645;SDS011;3864;48.180;14.178;2024-01-15T01:08:46;37.55;;;15.35;;
7645;SDS011;3864;48.180;14.178;2024-01-15T01:11:15;40.63;;;15.52;;
7645;SDS011;3864;48.180;14.178;2024-01-15T01:13:42;39.90;;;16.55;;
7645;SDS011;3864;48.180;14.178;2024-01-15T01:16:09;38.47;;;14.85;;
7645;SDS011;3864;48.180;14.178;2024-01-15T01:18:36;38.67;;;15.30;;
7645;SDS011;3864;48.180;14.178;2024-01-15T01:21:03;37.00;;;14.32;;
7645;SDS011;3864;48.180;14.178;2024-01-15T01:23:30;38.75;;;15.13;;
7645;SDS011;3864;48.180;14.178;2024-01-15T01:25:57;36.47;;;15.73;;
7645;SDS011;3864;48.180;14.178;2024-01-15T01:28:25;37.70;;;16.00;;
7645;SDS011;3864;48.180;14.178;2024-01-15T01:30:53;36.65;;;13.73;;
7645;SDS011;3864;48.180;14.178;2024-01-15T01:33:19;37.10;;;14.77;;
7645;SDS011;3864;48.180;14.178;2024-01-15T01:35:46;36.38;;;14.13;;
7645;SDS011;3864;48.180;14.178;2024-01-15T01:38:14;35.42;;;14.48;;
7645;SDS011;3864;48.180;14.178;2024-01-15T01:40:40;34.05;;;13.60;;
7645;SDS011;3864;48.180;14.178;2024-01-15T01:43:08;38.95;;;14.85;;
7645;SDS011;3864;48.180;14.178;2024-01-15T01:45:37;36.60;;;15.45;;
7645;SDS011;3864;48.180;14.178;2024-01-15T01:48:05;32.13;;;12.95;;
7645;SDS011;3864;48.180;14.178;2024-01-15T01:50:32;29.70;;;12.82;;
7645;SDS011;3864;48.180;14.178;2024-01-15T01:53:00;35.70;;;13.45;;
7645;SDS011;3864;48.180;14.178;2024-01-15T01:55:29;34.20;;;13.98;;
7645;SDS011;3864;48.180;14.178;2024-01-15T01:57:58;32.55;;;13.82;;
7645;SDS011;3864;48.180;14.178;2024-01-15T02:02:54;27.50;;;12.02;;
7645;SDS011;3864;48.180;14.178;2024-01-15T02:05:22;33.85;;;13.23;;
7645;SDS011;3864;48.180;14.178;2024-01-15T02:07:49;26.55;;;11.75;;
7645;SDS011;3864;48.180;14.178;2024-01-15T02:10:16;32.25;;;12.35;;
7645;SDS011;3864;48.180;14.178;2024-01-15T02:12:43;31.08;;;12.65;;
7645;SDS011;3864;48.180;14.178;2024-01-15T02:15:10;29.92;;;13.07;;
7645;SDS011;3864;48.180;14.178;2024-01-15T02:20:24;34.58;;;13.10;;
7645;SDS011;3864;48.180;14.178;2024-01-15T02:22:51;33.72;;;13.80;;
7645;SDS011;3864;48.180;14.178;2024-01-15T02:25:20;27.13;;;11.95;;
7645;SDS011;3864;48.180;14.178;2024-01-15T02:27:47;35.97;;;13.82;;
7645;SDS011;3864;48.180;14.178;2024-01-15T02:30:14;36.35;;;13.82;;
7645;SDS011;3864;48.180;14.178;2024-01-15T02:32:43;31.60;;;14.27;;
7645;SDS011;3864;48.180;14.178;2024-01-15T02:37:37;25.90;;;11.75;;
7645;SDS011;3864;48.180;14.178;2024-01-15T02:40:04;25.75;;;11.85;;
7645;SDS011;3864;48.180;14.178;2024-01-15T02:42:34;32.33;;;13.20;;
7645;SDS011;3864;48.180;14.178;2024-01-15T02:45:01;37.55;;;13.88;;
7645;SDS011;3864;48.180;14.178;2024-01-15T02:47:28;31.52;;;12.93;;
7645;SDS011;3864;48.180;14.178;2024-01-15T02:49:55;25.30;;;12.18;;
7645;SDS011;3864;48.180;14.178;2024-01-15T02:52:22;28.92;;;13.13;;
7645;SDS011;3864;48.180;14.178;2024-01-15T02:54:49;33.15;;;13.02;;
7645;SDS011;3864;48.180;14.178;2024-01-15T02:57:16;28.33;;;12.80;;
7645;SDS011;3864;48.180;14.178;2024-01-15T02:59:44;31.35;;;14.45;;
7645;SDS011;3864;48.180;14.178;2024-01-15T03:02:11;34.38;;;13.65;;
7645;SDS011;3864;48.180;14.178;2024-01-15T03:04:42;24.75;;;12.95;;
7645;SDS011;3864;48.180;14.178;2024-01-15T03:07:09;27.15;;;12.13;;
7645;SDS011;3864;48.180;14.178;2024-01-15T03:09:36;41.90;;;14.48;;
7645;SDS011;3864;48.180;14.178;2024-01-15T03:12:04;34.15;;;13.88;;
7645;SDS011;3864;48.180;14.178;2024-01-15T03:14:31;31.67;;;14.45;;
7645;SDS011;3864;48.180;14.178;2024-01-15T03:16:59;16.52;;;8.30;;
7645;SDS011;3864;48.180;14.178;2024-01-15T03:19:27;24.40;;;9.90;;
7645;SDS011;3864;48.180;14.178;2024-01-15T03:21:53;30.95;;;13.60;;
7645;SDS011;3864;48.180;14.178;2024-01-15T03:24:21;16.88;;;8.40;;
7645;SDS011;3864;48.180;14.178;2024-01-15T03:26:48;15.50;;;8.73;;
7645;SDS011;3864;48.180;14.178;2024-01-15T03:29:14;20.63;;;9.38;;
7645;SDS011;3864;48.180;14.178;2024-01-15T03:31:41;16.08;;;9.20;;
7645;SDS011;3864;48.180;14.178;2024-01-15T03:34:10;20.25;;;10.18;;
7645;SDS011;3864;48.180;14.178;2024-01-15T03:36:37;11.35;;;6.18;;
7645;SDS011;3864;48.180;14.178;2024-01-15T03:39:04;18.13;;;8.80;;
7645;SDS011;3864;48.180;14.178;2024-01-15T03:41:31;15.55;;;7.72;;
7645;SDS011;3864;48.180;14.178;2024-01-15T03:43:58;15.95;;;7.85;;
7645;SDS011;3864;48.180;14.178;2024-01-15T03:46:25;18.00;;;8.60;;
7645;SDS011;3864;48.180;14.178;2024-01-15T03:48:52;18.58;;;8.35;;
7645;SDS011;3864;48.180;14.178;2024-01-15T03:51:21;17.00;;;8.02;;
7645;SDS011;3864;48.180;14.178;2024-01-15T03:53:49;17.30;;;8.90;;
7645;SDS011;3864;48.180;14.178;2024-01-15T03:56:16;11.05;;;6.60;;
7645;SDS011;3864;48.180;14.178;2024-01-15T03:58:43;17.55;;;8.23;;
7645;SDS011;3864;48.180;14.178;2024-01-15T04:01:10;19.63;;;8.32;;
7645;SDS011;3864;48.180;14.178;2024-01-15T04:03:37;15.82;;;7.10;;
7645;SDS011;3864;48.180;14.178;2024-01-15T04:06:04;14.77;;;7.97;;
7645;SDS011;3864;48.180;14.178;2024-01-15T04:08:33;15.82;;;8.65;;
7645;SDS011;3864;48.180;14.178;2024-01-15T04:11:00;18.38;;;7.88;;
7645;SDS011;3864;48.180;14.178;2024-01-15T04:13:27;15.43;;;8.15;;
7645;SDS011;3864;48.180;14.178;2024-01-15T04:15:54;13.95;;;7.72;;
7645;SDS011;3864;48.180;14.178;2024-01-15T04:18:21;10.93;;;7.00;;
7645;SDS011;3864;48.180;14.178;2024-01-15T04:20:48;14.98;;;8.27;;
7645;SDS011;3864;48.180;14.178;2024-01-15T04:23:15;18.13;;;8.85;;
7645;SDS011;3864;48.180;14.178;2024-01-15T04:25:43;16.85;;;7.28;;
7645;SDS011;3864;48.180;14.178;2024-01-15T04:28:11;13.68;;;7.07;;
7645;SDS011;3864;48.180;14.178;2024-01-15T04:30:38;13.73;;;7.53;;
7645;SDS011;3864;48.180;14.178;2024-01-15T04:33:04;18.42;;;9.27;;
7645;SDS011;3864;48.180;14.178;2024-01-15T04:35:32;13.85;;;7.63;;
7645;SDS011;3864;48.180;14.178;2024-01-15T04:37:59;15.88;;;7.78;;
7645;SDS011;3864;48.180;14.178;2024-01-15T04:40:26;17.42;;;8.60;;
7645;SDS011;3864;48.180;14.178;2024-01-15T04:42:55;17.25;;;8.60;;
7645;SDS011;3864;48.180;14.178;2024-01-15T04:45:22;16.80;;;8.35;;
7645;SDS011;3864;48.180;14.178;2024-01-15T04:47:53;15.07;;;8.48;;
7645;SDS011;3864;48.180;14.178;2024-01-15T04:50:21;20.05;;;8.85;;
7645;SDS011;3864;48.180;14.178;2024-01-15T04:52:48;21.85;;;9.45;;
7645;SDS011;3864;48.180;14.178;2024-01-15T04:57:42;13.52;;;7.13;;
7645;SDS011;3864;48.180;14.178;2024-01-15T05:00:12;20.65;;;9.25;;
7645;SDS011;3864;48.180;14.178;2024-01-15T05:02:39;15.00;;;7.80;;
7645;SDS011;3864;48.180;14.178;2024-01-15T05:05:06;14.90;;;7.32;;
7645;SDS011;3864;48.180;14.178;2024-01-15T05:07:33;17.73;;;8.07;;
7645;SDS011;3864;48.180;14.178;2024-01-15T05:10:00;17.17;;;8.95;;
7645;SDS011;3864;48.180;14.178;2024-01-15T05:12:28;15.63;;;8.68;;
7645;SDS011;3864;48.180;14.178;2024-01-15T05:14:55;16.48;;;8.55;;
7645;SDS011;3864;48.180;14.178;2024-01-15T05:17:23;16.58;;;8.73;;
7645;SDS011;3864;48.180;14.178;2024-01-15T05:19:50;16.23;;;7.93;;
7645;SDS011;3864;48.180;14.178;2024-01-15T05:22:18;15.63;;;8.13;;
7645;SDS011;3864;48.180;14.178;2024-01-15T05:24:46;15.50;;;7.72;;
7645;SDS011;3864;48.180;14.178;2024-01-15T05:27:13;16.40;;;8.70;;
7645;SDS011;3864;48.180;14.178;2024-01-15T05:29:40;18.08;;;7.97;;
7645;SDS011;3864;48.180;14.178;2024-01-15T05:32:07;15.95;;;7.28;;
7645;SDS011;3864;48.180;14.178;2024-01-15T05:34:35;17.10;;;8.77;;
7645;SDS011;3864;48.180;14.178;2024-01-15T05:37:02;20.92;;;8.98;;
7645;SDS011;3864;48.180;14.178;2024-01-15T05:39:29;15.40;;;7.40;;
7645;SDS011;3864;48.180;14.178;2024-01-15T05:44:24;18.30;;;8.10;;
7645;SDS011;3864;48.180;14.178;2024-01-15T05:46:51;18.45;;;8.82;;
7645;SDS011;3864;48.180;14.178;2024-01-15T05:49:19;17.27;;;8.85;;
7645;SDS011;3864;48.180;14.178;2024-01-15T05:51:47;17.20;;;8.48;;
7645;SDS011;3864;48.180;14.178;2024-01-15T05:54:14;19.63;;;9.18;;
7645;SDS011;3864;48.180;14.178;2024-01-15T05:56:41;18.73;;;8.82;;
7645;SDS011;3864;48.180;14.178;2024-01-15T05:59:08;16.75;;;9.10;;
7645;SDS011;3864;48.180;14.178;2024-01-15T06:01:35;17.15;;;8.75;;
7645;SDS011;3864;48.180;14.178;2024-01-15T06:04:02;21.55;;;10.23;;
7645;SDS011;3864;48.180;14.178;2024-01-15T06:06:29;19.33;;;9.35;;
7645;SDS011;3864;48.180;14.178;2024-01-15T06:08:58;21.30;;;10.55;;
7645;SDS011;3864;48.180;14.178;2024-01-15T06:11:30;20.65;;;9.35;;
7645;SDS011;3864;48.180;14.178;2024-01-15T06:13:57;19.45;;;9.45;;
7645;SDS011;3864;48.180;14.178;2024-01-15T06:16:25;23.17;;;10.20;;
7645;SDS011;3864;48.180;14.178;2024-01-15T06:18:52;18.73;;;8.82;;
7645;SDS011;3864;48.180;14.178;2024-01-15T06:21:19;20.55;;;9.93;;
7645;SDS011;3864;48.180;14.178;2024-01-15T06:23:46;17.38;;;9.57;;
7645;SDS011;3864;48.180;14.178;2024-01-15T06:26:15;21.60;;;10.85;;
7645;SDS011;3864;48.180;14.178;2024-01-15T06:28:42;18.17;;;8.48;;
7645;SDS011;3864;48.180;14.178;2024-01-15T06:31:09;21.42;;;9.35;;
7645;SDS011;3864;48.180;14.178;2024-01-15T06:33:36;19.52;;;9.35;;
7645;SDS011;3864;48.180;14.178;2024-01-15T06:36:03;22.35;;;8.93;;
7645;SDS011;3864;48.180;14.178;2024-01-15T06:38:30;20.30;;;9.25;;
7645;SDS011;3864;48.180;14.178;2024-01-15T06:40:57;20.30;;;9.60;;
7645;SDS011;3864;48.180;14.178;2024-01-15T06:43:26;21.20;;;10.48;;
7645;SDS011;3864;48.180;14.178;2024-01-15T06:45:53;18.88;;;9.45;;
7645;SDS011;3864;48.180;14.178;2024-01-15T06:48:20;22.08;;;9.45;;
7645;SDS011;3864;48.180;14.178;2024-01-15T06:50:46;17.98;;;8.63;;
7645;SDS011;3864;48.180;14.178;2024-01-15T06:53:13;19.55;;;9.43;;
7645;SDS011;3864;48.180;14.178;2024-01-15T06:55:40;16.88;;;8.60;;
7645;SDS011;3864;48.180;14.178;2024-01-15T07:00:36;16.45;;;9.07;;
7645;SDS011;3864;48.180;14.178;2024-01-15T07:03:03;19.13;;;9.07;;
7645;SDS011;3864;48.180;14.178;2024-01-15T07:05:30;18.00;;;8.90;;
7645;SDS011;3864;48.180;14.178;2024-01-15T07:07:57;19.13;;;9.13;;
7645;SDS011;3864;48.180;14.178;2024-01-15T07:10:24;17.83;;;8.10;;
7645;SDS011;3864;48.180;14.178;2024-01-15T07:12:51;17.23;;;8.27;;
7645;SDS011;3864;48.180;14.178;2024-01-15T07:15:18;15.57;;;7.88;;
7645;SDS011;3864;48.180;14.178;2024-01-15T07:17:47;19.30;;;8.35;;
7645;SDS011;3864;48.180;14.178;2024-01-15T07:20:14;17.05;;;7.63;;
7645;SDS011;3864;48.180;14.178;2024-01-15T07:22:42;16.67;;;8.55;;
7645;SDS011;3864;48.180;14.178;2024-01-15T07:25:09;16.85;;;7.88;;
7645;SDS011;3864;48.180;14.178;2024-01-15T07:27:37;20.05;;;9.32;;
7645;SDS011;3864;48.180;14.178;2024-01-15T07:30:05;15.93;;;7.75;;
7645;SDS011;3864;48.180;14.178;2024-01-15T07:32:33;17.45;;;7.65;;
7645;SDS011;3864;48.180;14.178;2024-01-15T07:35:01;18.40;;;9.05;;
7645;SDS011;3864;48.180;14.178;2024-01-15T07:37:28;19.20;;;10.15;;
7645;SDS011;3864;48.180;14.178;2024-01-15T07:39:55;21.33;;;9.05;;
7645;SDS011;3864;48.180;14.178;2024-01-15T07:42:22;17.77;;;8.60;;
7645;SDS011;3864;48.180;14.178;2024-01-15T07:44:49;17.92;;;8.43;;
7645;SDS011;3864;48.180;14.178;2024-01-15T07:47:16;18.15;;;9.70;;
7645;SDS011;3864;48.180;14.178;2024-01-15T07:49:43;17.92;;;9.27;;
7645;SDS011;3864;48.180;14.178;2024-01-15T07:52:12;18.52;;;8.80;;
7645;SDS011;3864;48.180;14.178;2024-01-15T07:54:38;13.73;;;7.43;;
7645;SDS011;3864;48.180;14.178;2024-01-15T07:57:06;15.85;;;8.23;;
7645;SDS011;3864;48.180;14.178;2024-01-15T07:59:33;19.45;;;8.45;;
7645;SDS011;3864;48.180;14.178;2024-01-15T08:02:01;18.58;;;8.73;;
7645;SDS011;3864;48.180;14.178;2024-01-15T08:04:28;18.75;;;8.68;;
7645;SDS011;3864;48.180;14.178;2024-01-15T08:06:55;17.20;;;9.10;;
7645;SDS011;3864;48.180;14.178;2024-01-15T08:09:24;16.35;;;8.18;;
7645;SDS011;3864;48.180;14.178;2024-01-15T08:11:51;12.20;;;6.20;;
7645;SDS011;3864;48.180;14.178;2024-01-15T08:14:18;12.30;;;6.30;;
7645;SDS011;3864;48.180;14.178;2024-01-15T08:16:45;10.30;;;5.15;;
7645;SDS011;3864;48.180;14.178;2024-01-15T08:19:12;10.52;;;6.15;;
7645;SDS011;3864;48.180;14.178;2024-01-15T08:21:39;11.00;;;5.70;;
7645;SDS011;3864;48.180;14.178;2024-01-15T08:24:06;10.07;;;5.50;;
7645;SDS011;3864;48.180;14.178;2024-01-15T08:26:35;9.32;;;4.97;;
7645;SDS011;3864;48.180;14.178;2024-01-15T08:29:02;8.63;;;5.70;;
7645;SDS011;3864;48.180;14.178;2024-01-15T08:33:57;7.80;;;4.72;;
7645;SDS011;3864;48.180;14.178;2024-01-15T08:36:24;9.52;;;4.88;;
7645;SDS011;3864;48.180;14.178;2024-01-15T08:38:52;11.45;;;5.88;;
7645;SDS011;3864;48.180;14.178;2024-01-15T08:41:18;11.02;;;5.82;;
7645;SDS011;3864;48.180;14.178;2024-01-15T08:43:47;11.13;;;5.78;;
7645;SDS011;3864;48.180;14.178;2024-01-15T08:46:14;9.77;;;5.22;;
7645;SDS011;3864;48.180;14.178;2024-01-15T08:51:08;7.55;;;4.82;;
7645;SDS011;3864;48.180;14.178;2024-01-15T08:53:35;12.15;;;6.70;;
7645;SDS011;3864;48.180;14.178;2024-01-15T08:56:02;10.25;;;5.70;;
7645;SDS011;3864;48.180;14.178;2024-01-15T08:58:29;11.93;;;5.95;;
7645;SDS011;3864;48.180;14.178;2024-01-15T09:00:58;9.98;;;5.43;;
7645;SDS011;3864;48.180;14.178;2024-01-15T09:03:25;10.23;;;5.20;;
7645;SDS011;3864;48.180;14.178;2024-01-15T09:05:52;10.38;;;5.65;;
7645;SDS011;3864;48.180;14.178;2024-01-15T09:08:19;11.15;;;6.60;;
7645;SDS011;3864;48.180;14.178;2024-01-15T09:10:46;7.38;;;4.70;;
7645;SDS011;3864;48.180;14.178;2024-01-15T09:13:13;7.13;;;5.22;;
7645;SDS011;3864;48.180;14.178;2024-01-15T09:15:41;9.30;;;5.65;;
7645;SDS011;3864;48.180;14.178;2024-01-15T09:20:37;7.75;;;4.32;;
7645;SDS011;3864;48.180;14.178;2024-01-15T09:23:05;6.45;;;4.22;;
7645;SDS011;3864;48.180;14.178;2024-01-15T09:25:32;7.18;;;4.78;;
7645;SDS011;3864;48.180;14.178;2024-01-15T09:27:59;12.02;;;5.25;;
7645;SDS011;3864;48.180;14.178;2024-01-15T09:30:27;9.18;;;4.68;;
7645;SDS011;3864;48.180;14.178;2024-01-15T09:32:54;7.55;;;4.65;;
7645;SDS011;3864;48.180;14.178;2024-01-15T09:35:24;7.93;;;4.95;;
7645;SDS011;3864;48.180;14.178;2024-01-15T09:37:51;8.45;;;5.10;;
7645;SDS011;3864;48.180;14.178;2024-01-15T09:40:17;8.95;;;5.28;;
7645;SDS011;3864;48.180;14.178;2024-01-15T09:42:47;7.95;;;5.45;;
7645;SDS011;3864;48.180;14.178;2024-01-15T09:47:41;6.35;;;3.97;;
7645;SDS011;3864;48.180;14.178;2024-01-15T09:50:09;8.77;;;4.63;;
7645;SDS011;3864;48.180;14.178;2024-01-15T09:52:38;9.75;;;5.80;;
7645;SDS011;3864;48.180;14.178;2024-01-15T09:55:06;7.38;;;3.90;;
7645;SDS011;3864;48.180;14.178;2024-01-15T09:57:35;7.43;;;4.03;;
7645;SDS011;3864;48.180;14.178;2024-01-15T10:00:03;9.18;;;4.97;;
7645;SDS011;3864;48.180;14.178;2024-01-15T10:02:32;8.10;;;4.60;;
7645;SDS011;3864;48.180;14.178;2024-01-15T10:05:00;5.57;;;3.78;;
7645;SDS011;3864;48.180;14.178;2024-01-15T10:07:27;6.60;;;3.50;;
7645;SDS011;3864;48.180;14.178;2024-01-15T10:09:58;8.57;;;4.72;;
7645;SDS011;3864;48.180;14.178;2024-01-15T10:12:26;7.35;;;3.85;;
7645;SDS011;3864;48.180;14.178;2024-01-15T10:14:53;7.28;;;4.05;;
7645;SDS011;3864;48.180;14.178;2024-01-15T10:17:20;7.10;;;4.80;;
7645;SDS011;3864;48.180;14.178;2024-01-15T10:22:14;7.00;;;4.15;;
7645;SDS011;3864;48.180;14.178;2024-01-15T10:24:41;9.68;;;5.07;;
7645;SDS011;3864;48.180;14.178;2024-01-15T10:27:10;10.43;;;4.32;;
7645;SDS011;3864;48.180;14.178;2024-01-15T10:29:37;7.07;;;4.65;;
7645;SDS011;3864;48.180;14.178;2024-01-15T10:32:06;7.78;;;5.00;;
7645;SDS011;3864;48.180;14.178;2024-01-15T10:34:34;6.00;;;3.65;;
7645;SDS011;3864;48.180;14.178;2024-01-15T10:37:04;8.95;;;3.90;;
7645;SDS011;3864;48.180;14.178;2024-01-15T10:39:34;5.80;;;4.05;;
7645;SDS011;3864;48.180;14.178;2024-01-15T10:42:01;5.05;;;3.20;;
7645;SDS011;3864;48.180;14.178;2024-01-15T10:44:30;8.02;;;4.25;;
7645;SDS011;3864;48.180;14.178;2024-01-15T10:46:57;5.85;;;3.80;;
7645;SDS011;3864;48.180;14.178;2024-01-15T10:49:25;7.90;;;3.72;;
7645;SDS011;3864;48.180;14.178;2024-01-15T10:51:54;7.93;;;4.43;;
7645;SDS011;3864;48.180;14.178;2024-01-15T10:54:22;8.18;;;3.63;;
7645;SDS011;3864;48.180;14.178;2024-01-15T10:56:50;7.25;;;4.40;;
7645;SDS011;3864;48.180;14.178;2024-01-15T10:59:18;5.50;;;3.80;;
7645;SDS011;3864;48.180;14.178;2024-01-15T11:01:48;7.55;;;3.90;;
7645;SDS011;3864;48.180;14.178;2024-01-15T11:04:18;6.18;;;3.90;;
7645;SDS011;3864;48.180;14.178;2024-01-15T11:06:47;4.75;;;3.30;;
7645;SDS011;3864;48.180;14.178;2024-01-15T11:09:17;7.20;;;3.65;;
7645;SDS011;3864;48.180;14.178;2024-01-15T11:11:45;6.00;;;4.43;;
7645;SDS011;3864;48.180;14.178;2024-01-15T11:17:03;5.25;;;3.35;;
7645;SDS011;3864;48.180;14.178;2024-01-15T11:19:36;5.53;;;3.40;;
7645;SDS011;3864;48.180;14.178;2024-01-15T11:22:05;8.35;;;4.30;;
7645;SDS011;3864;48.180;14.178;2024-01-15T11:24:35;6.78;;;3.70;;
7645;SDS011;3864;48.180;14.178;2024-01-15T11:27:03;6.32;;;3.88;;
7645;SDS011;3864;48.180;14.178;2024-01-15T11:29:31;4.82;;;3.28;;
7645;SDS011;3864;48.180;14.178;2024-01-15T11:32:01;6.65;;;3.85;;
7645;SDS011;3864;48.180;14.178;2024-01-15T11:37:24;7.68;;;3.80;;
7645;SDS011;3864;48.180;14.178;2024-01-15T11:39:52;6.32;;;3.22;;
7645;SDS011;3864;48.180;14.178;2024-01-15T11:42:20;5.93;;;3.45;;
7645;SDS011;3864;48.180;14.178;2024-01-15T11:44:48;6.93;;;3.47;;
7645;SDS011;3864;48.180;14.178;2024-01-15T11:47:21;5.57;;;3.40;;
7645;SDS011;3864;48.180;14.178;2024-01-15T11:50:15;5.15;;;3.40;;
7645;SDS011;3864;48.180;14.178;2024-01-15T11:52:42;5.90;;;3.00;;
7645;SDS011;3864;48.180;14.178;2024-01-15T11:55:19;6.20;;;3.08;;
7645;SDS011;3864;48.180;14.178;2024-01-15T11:57:50;4.57;;;3.03;;
7645;SDS011;3864;48.180;14.178;2024-01-15T12:00:21;5.70;;;3.38;;
7645;SDS011;3864;48.180;14.178;2024-01-15T12:02:51;5.10;;;3.35;;
7645;SDS011;3864;48.180;14.178;2024-01-15T12:05:18;5.22;;;3.22;;
7645;SDS011;3864;48.180;14.178;2024-01-15T12:07:47;7.32;;;3.95;;
7645;SDS011;3864;48.180;14.178;2024-01-15T12:10:15;5.10;;;3.00;;
7645;SDS011;3864;48.180;14.178;2024-01-15T12:12:47;4.53;;;3.00;;
7645;SDS011;3864;48.180;14.178;2024-01-15T12:15:24;4.63;;;2.72;;
7645;SDS011;3864;48.180;14.178;2024-01-15T12:17:53;5.63;;;2.53;;
7645;SDS011;3864;48.180;14.178;2024-01-15T12:20:22;5.88;;;3.63;;
7645;SDS011;3864;48.180;14.178;2024-01-15T12:22:50;5.82;;;3.05;;
7645;SDS011;3864;48.180;14.178;2024-01-15T12:25:17;6.07;;;3.22;;
7645;SDS011;3864;48.180;14.178;2024-01-15T12:27:44;5.55;;;3.30;;
7645;SDS011;3864;48.180;14.178;2024-01-15T12:30:12;5.50;;;3.00;;
7645;SDS011;3864;48.180;14.178;2024-01-15T12:32:40;4.47;;;2.33;;
7645;SDS011;3864;48.180;14.178;2024-01-15T12:37:36;5.32;;;2.65;;
7645;SDS011;3864;48.180;14.178;2024-01-15T12:40:04;7.05;;;2.60;;
7645;SDS011;3864;48.180;14.178;2024-01-15T12:42:32;5.85;;;2.67;;
7645;SDS011;3864;48.180;14.178;2024-01-15T12:44:59;6.47;;;3.13;;
7645;SDS011;3864;48.180;14.178;2024-01-15T12:47:28;5.55;;;3.15;;
7645;SDS011;3864;48.180;14.178;2024-01-15T12:49:55;4.72;;;2.75;;
7645;SDS011;3864;48.180;14.178;2024-01-15T12:52:26;4.88;;;3.28;;
7645;SDS011;3864;48.180;14.178;2024-01-15T12:54:54;6.55;;;2.60;;
7645;SDS011;3864;48.180;14.178;2024-01-15T12:57:21;5.30;;;2.97;;
7645;SDS011;3864;48.180;14.178;2024-01-15T12:59:48;3.65;;;2.42;;
7645;SDS011;3864;48.180;14.178;2024-01-15T13:02:16;3.20;;;2.20;;
7645;SDS011;3864;48.180;14.178;2024-01-15T13:04:43;5.82;;;2.55;;
7645;SDS011;3864;48.180;14.178;2024-01-15T13:07:10;4.22;;;2.58;;
7645;SDS011;3864;48.180;14.178;2024-01-15T13:09:38;4.18;;;2.78;;
7645;SDS011;3864;48.180;14.178;2024-01-15T13:12:06;4.57;;;2.40;;
7645;SDS011;3864;48.180;14.178;2024-01-15T13:14:33;5.40;;;2.88;;
7645;SDS011;3864;48.180;14.178;2024-01-15T13:17:01;3.55;;;2.30;;
7645;SDS011;3864;48.180;14.178;2024-01-15T13:19:29;4.25;;;2.40;;
7645;SDS011;3864;48.180;14.178;2024-01-15T13:21:56;4.63;;;2.75;;
7645;SDS011;3864;48.180;14.178;2024-01-15T13:24:25;4.35;;;2.22;;
7645;SDS011;3864;48.180;14.178;2024-01-15T13:26:53;3.85;;;2.30;;
7645;SDS011;3864;48.180;14.178;2024-01-15T13:29:22;3.45;;;2.35;;
7645;SDS011;3864;48.180;14.178;2024-01-15T13:31:49;3.95;;;2.25;;
7645;SDS011;3864;48.180;14.178;2024-01-15T13:34:16;3.67;;;2.17;;
7645;SDS011;3864;48.180;14.178;2024-01-15T13:36:43;4.13;;;2.40;;
7645;SDS011;3864;48.180;14.178;2024-01-15T13:39:10;3.92;;;2.25;;
7645;SDS011;3864;48.180;14.178;2024-01-15T13:41:37;2.70;;;1.90;;
7645;SDS011;3864;48.180;14.178;2024-01-15T13:44:06;5.45;;;2.80;;
7645;SDS011;3864;48.180;14.178;2024-01-15T13:46:33;3.45;;;2.10;;
7645;SDS011;3864;48.180;14.178;2024-01-15T13:49:00;5.18;;;2.80;;
7645;SDS011;3864;48.180;14.178;2024-01-15T13:51:29;3.38;;;1.95;;
7645;SDS011;3864;48.180;14.178;2024-01-15T13:53:56;3.45;;;2.65;;
7645;SDS011;3864;48.180;14.178;2024-01-15T13:56:23;2.95;;;2.10;;
7645;SDS011;3864;48.180;14.178;2024-01-15T13:58:55;4.22;;;2.38;;
7645;SDS011;3864;48.180;14.178;2024-01-15T14:01:24;4.47;;;2.45;;
7645;SDS011;3864;48.180;14.178;2024-01-15T14:03:52;3.90;;;2.63;;
7645;SDS011;3864;48.180;14.178;2024-01-15T14:06:19;4.05;;;2.58;;
7645;SDS011;3864;48.180;14.178;2024-01-15T14:08:46;5.60;;;2.65;;
7645;SDS011;3864;48.180;14.178;2024-01-15T14:13:39;3.33;;;2.30;;
7645;SDS011;3864;48.180;14.178;2024-01-15T14:16:06;3.72;;;2.63;;
7645;SDS011;3864;48.180;14.178;2024-01-15T14:18:36;4.43;;;2.17;;
7645;SDS011;3864;48.180;14.178;2024-01-15T14:21:03;4.05;;;2.17;;
7645;SDS011;3864;48.180;14.178;2024-01-15T14:23:30;4.32;;;2.38;;
7645;SDS011;3864;48.180;14.178;2024-01-15T14:25:57;3.60;;;2.40;;
7645;SDS011;3864;48.180;14.178;2024-01-15T14:28:24;4.50;;;2.60;;
7645;SDS011;3864;48.180;14.178;2024-01-15T14:30:51;4.63;;;2.70;;
7645;SDS011;3864;48.180;14.178;2024-01-15T14:33:18;4.20;;;2.40;;
7645;SDS011;3864;48.180;14.178;2024-01-15T14:35:47;4.28;;;2.22;;
7645;SDS011;3864;48.180;14.178;2024-01-15T14:38:14;4.10;;;2.45;;
7645;SDS011;3864;48.180;14.178;2024-01-15T14:40:41;5.35;;;2.70;;
7645;SDS011;3864;48.180;14.178;2024-01-15T14:43:09;5.20;;;2.83;;
7645;SDS011;3864;48.180;14.178;2024-01-15T14:45:36;4.82;;;2.30;;
7645;SDS011;3864;48.180;14.178;2024-01-15T14:48:03;4.97;;;2.70;;
7645;SDS011;3864;48.180;14.178;2024-01-15T14:50:30;5.03;;;2.60;;
7645;SDS011;3864;48.180;14.178;2024-01-15T14:52:59;4.82;;;2.85;;
7645;SDS011;3864;48.180;14.178;2024-01-15T14:55:26;6.47;;;3.05;;
7645;SDS011;3864;48.180;14.178;2024-01-15T14:57:53;4.32;;;2.55;;
7645;SDS011;3864;48.180;14.178;2024-01-15T15:00:20;4.28;;;2.58;;
7645;SDS011;3864;48.180;14.178;2024-01-15T15:02:47;3.55;;;2.50;;
7645;SDS011;3864;48.180;14.178;2024-01-15T15:05:14;4.65;;;2.63;;
7645;SDS011;3864;48.180;14.178;2024-01-15T15:07:42;4.45;;;2.53;;
7645;SDS011;3864;48.180;14.178;2024-01-15T15:10:11;3.72;;;2.58;;
7645;SDS011;3864;48.180;14.178;2024-01-15T15:12:38;4.43;;;2.70;;
7645;SDS011;3864;48.180;14.178;2024-01-15T15:15:06;6.45;;;3.00;;
7645;SDS011;3864;48.180;14.178;2024-01-15T15:17:36;4.88;;;2.60;;
7645;SDS011;3864;48.180;14.178;2024-01-15T15:22:31;4.15;;;2.30;;
7645;SDS011;3864;48.180;14.178;2024-01-15T15:27:26;4.47;;;1.98;;
7645;SDS011;3864;48.180;14.178;2024-01-15T15:29:54;3.67;;;2.22;;
7645;SDS011;3864;48.180;14.178;2024-01-15T15:32:21;4.60;;;2.35;;
7645;SDS011;3864;48.180;14.178;2024-01-15T15:34:48;3.75;;;2.20;;
7645;SDS011;3864;48.180;14.178;2024-01-15T15:37:15;4.38;;;2.20;;
7645;SDS011;3864;48.180;14.178;2024-01-15T15:39:42;4.63;;;2.30;;